createdAt,value
2019-01-19T00:02:52.542Z,-1.85
2019-01-19T00:06:24.507Z,-1.63
2019-01-19T00:09:22.510Z,-1.79
2019-01-19T00:13:10.545Z,-1.89
2019-01-19T00:16:10.459Z,-1.72
2019-01-19T00:20:00.519Z,-1.57
2019-01-19T00:23:11.808Z,-1.73
2019-01-19T00:26:58.635Z,-1.83
2019-01-19T00:30:19.296Z,-1.73
2019-01-19T00:34:08.457Z,-1.70
2019-01-19T00:37:06.110Z,-1.89
2019-01-19T00:40:43.270Z,-1.68
2019-01-19T00:43:35.061Z,-1.48
2019-01-19T00:46:46.888Z,-1.49
2019-01-19T00:49:55.332Z,-1.69
2019-01-19T00:53:10.876Z,-1.61
2019-01-19T00:56:22.102Z,-2.01
2019-01-19T00:59:29.785Z,-1.75
2019-01-19T01:02:36.403Z,-1.80
2019-01-19T01:05:35.076Z,-1.95
2019-01-19T01:08:45.918Z,-2.07
2019-01-19T01:12:07.792Z,-1.80
2019-01-19T01:15:47.227Z,-1.92
2019-01-19T01:18:37.634Z,-1.69
2019-01-19T01:22:12.895Z,-1.60
2019-01-19T01:25:43.280Z,-1.55
2019-01-19T01:29:26.917Z,-1.82
2019-01-19T01:32:51.216Z,-1.76
2019-01-19T01:36:30.167Z,-1.96
2019-01-19T01:39:35.063Z,-2.13
2019-01-19T01:42:56.070Z,-2.01
2019-01-19T01:46:19.152Z,-1.90
2019-01-19T01:49:30.574Z,-1.97
2019-01-19T01:52:45.927Z,-2.04
2019-01-19T01:55:46.047Z,-1.92
2019-01-19T01:58:55.262Z,-1.67
2019-01-19T02:02:36.934Z,-2.11
2019-01-19T02:05:51.486Z,-1.74
2019-01-19T02:09:21.844Z,-2.20
2019-01-19T02:12:50.004Z,-2.00
2019-01-19T02:16:07.892Z,-2.26
2019-01-19T02:19:29.670Z,-1.86
2019-01-19T02:23:08.476Z,-2.39
2019-01-19T02:26:32.658Z,-1.77
2019-01-19T02:30:07.029Z,-1.78
2019-01-19T02:33:51.934Z,-1.74
2019-01-19T02:37:08.352Z,-1.94
2019-01-19T02:41:00.873Z,-1.97
2019-01-19T02:44:25.223Z,-1.96
2019-01-19T02:47:30.810Z,-1.99
2019-01-19T02:50:45.398Z,-2.13
2019-01-19T02:54:01.197Z,-1.94
2019-01-19T02:57:37.962Z,-1.92
2019-01-19T03:00:57.712Z,-2.19
2019-01-19T03:04:44.006Z,-1.85
2019-01-19T03:08:29.377Z,-2.38
2019-01-19T03:12:10.566Z,-2.13
2019-01-19T03:15:16.954Z,-1.93
2019-01-19T03:18:23.479Z,-1.83
2019-01-19T03:21:51.709Z,-1.71
2019-01-19T03:25:26.306Z,-2.19
2019-01-19T03:28:38.951Z,-2.35
2019-01-19T03:32:08.936Z,-2.36
2019-01-19T03:35:19.478Z,-2.04
2019-01-19T03:38:35.421Z,-2.23
2019-01-19T03:42:01.488Z,-2.27
2019-01-19T03:45:25.338Z,-2.21
2019-01-19T03:48:39.348Z,-2.22
2019-01-19T03:52:07.012Z,-2.34
2019-01-19T03:55:13.668Z,-2.57
2019-01-19T03:58:18.695Z,-2.63
2019-01-19T04:01:20.377Z,-2.23
2019-01-19T04:04:27.118Z,-2.41
2019-01-19T04:07:44.847Z,-2.33
2019-01-19T04:10:50.403Z,-2.57
2019-01-19T04:14:41.512Z,-2.44
2019-01-19T04:18:10.534Z,-2.53
2019-01-19T04:21:21.551Z,-2.76
2019-01-19T04:24:03.081Z,-2.57
2019-01-19T04:26:41.666Z,-2.48
2019-01-19T04:29:13.133Z,-2.75
2019-01-19T04:31:44.551Z,-2.57
2019-01-19T04:34:16.271Z,-2.45
2019-01-19T04:36:52.479Z,-2.45
2019-01-19T04:39:23.976Z,-2.80
2019-01-19T04:41:55.361Z,-2.59
2019-01-19T04:44:28.455Z,-2.75
2019-01-19T04:46:59.881Z,-2.76
2019-01-19T04:49:33.859Z,-2.93
2019-01-19T04:52:05.263Z,-2.70
2019-01-19T04:54:36.719Z,-2.93
2019-01-19T04:57:08.293Z,-2.68
2019-01-19T04:59:42.529Z,-2.71
2019-01-19T05:02:16.385Z,-2.90
2019-01-19T05:04:47.849Z,-2.91
2019-01-19T05:07:23.973Z,-2.82
2019-01-19T05:09:53.957Z,-2.89
2019-01-19T05:12:25.376Z,-2.91
2019-01-19T05:14:58.315Z,-3.29
2019-01-19T05:17:29.744Z,-3.03
2019-01-19T05:20:01.184Z,-3.28
2019-01-19T05:22:35.424Z,-3.39
2019-01-19T05:25:07.671Z,-3.40
2019-01-19T05:27:39.219Z,-3.48
2019-01-19T05:30:21.467Z,-3.46
2019-01-19T05:32:53.069Z,-3.44
2019-01-19T05:35:24.498Z,-3.75
2019-01-19T05:37:55.911Z,-3.66
2019-01-19T05:40:28.697Z,-3.53
2019-01-19T05:43:00.113Z,-3.63
2019-01-19T05:45:31.558Z,-3.48
2019-01-19T05:48:02.996Z,-3.86
2019-01-19T05:50:34.391Z,-3.79
2019-01-19T05:53:05.925Z,-3.57
2019-01-19T05:55:37.363Z,-3.63
2019-01-19T05:58:09.128Z,-3.67
2019-01-19T06:00:40.588Z,-3.43
2019-01-19T06:03:12.007Z,-3.51
2019-01-19T06:05:44.616Z,-3.58
2019-01-19T06:08:16.032Z,-3.70
2019-01-19T06:10:47.484Z,-4.01
2019-01-19T06:13:20.658Z,-3.74
2019-01-19T06:15:52.100Z,-3.78
2019-01-19T06:18:23.451Z,-3.81
2019-01-19T06:20:54.834Z,-3.92
2019-01-19T06:23:26.248Z,-3.91
2019-01-19T06:25:57.711Z,-3.95
2019-01-19T06:28:29.130Z,-3.64
2019-01-19T06:31:00.588Z,-3.89
2019-01-19T06:33:34.769Z,-3.71
2019-01-19T06:36:06.337Z,-3.88
2019-01-19T06:38:37.775Z,-4.06
2019-01-19T06:41:09.223Z,-3.79
2019-01-19T06:43:40.663Z,-3.99
2019-01-19T06:46:12.116Z,-3.78
2019-01-19T06:48:43.539Z,-3.77
2019-01-19T06:51:15.029Z,-3.87
2019-01-19T06:53:47.143Z,-4.07
2019-01-19T06:56:18.618Z,-3.74
2019-01-19T06:58:50.424Z,-3.94
2019-01-19T07:01:21.847Z,-3.90
2019-01-19T07:03:53.266Z,-4.09
2019-01-19T07:06:24.842Z,-4.15
2019-01-19T07:08:56.262Z,-4.26
2019-01-19T07:11:27.775Z,-4.32
2019-01-19T07:13:59.207Z,-4.07
2019-01-19T07:16:30.648Z,-4.10
2019-01-19T07:19:02.139Z,-4.08
2019-01-19T07:21:33.591Z,-3.97
2019-01-19T07:24:06.122Z,-4.22
2019-01-19T07:26:37.548Z,-4.02
2019-01-19T07:29:08.994Z,-4.53
2019-01-19T07:31:40.442Z,-4.24
2019-01-19T07:34:11.925Z,-4.16
2019-01-19T07:36:43.278Z,-4.40
2019-01-19T07:39:14.705Z,-4.49
2019-01-19T07:41:46.198Z,-4.60
2019-01-19T07:44:17.629Z,-4.53
2019-01-19T07:46:55.941Z,-4.03
2019-01-19T07:49:22.766Z,-3.93
2019-01-19T07:51:54.176Z,-3.98
2019-01-19T07:54:25.678Z,-3.82
2019-01-19T07:56:57.143Z,-3.58
2019-01-19T07:59:28.620Z,-3.75
2019-01-19T08:02:00.104Z,-4.17
2019-01-19T08:04:31.532Z,-4.29
2019-01-19T08:07:02.996Z,-4.00
2019-01-19T08:09:34.442Z,-4.03
2019-01-19T08:12:06.114Z,-3.73
2019-01-19T08:14:37.714Z,-4.09
2019-01-19T08:17:09.484Z,-4.35
2019-01-19T08:19:41.050Z,-4.06
2019-01-19T08:22:14.273Z,-3.94
2019-01-19T08:24:45.706Z,-4.35
2019-01-19T08:27:17.190Z,-3.96
2019-01-19T08:29:48.655Z,-4.11
2019-01-19T08:32:21.411Z,-4.19
2019-01-19T08:34:52.881Z,-4.09
2019-01-19T08:37:24.622Z,-3.97
2019-01-19T08:39:56.216Z,-3.67
2019-01-19T08:42:27.929Z,-3.75
2019-01-19T08:44:59.642Z,-3.32
2019-01-19T08:47:31.100Z,-3.58
2019-01-19T08:50:03.778Z,-3.40
2019-01-19T08:52:35.185Z,-3.31
2019-01-19T08:55:07.572Z,-3.30
2019-01-19T08:57:39.024Z,-3.31
2019-01-19T09:00:14.876Z,-3.02
2019-01-19T09:02:46.358Z,-3.20
2019-01-19T09:05:19.803Z,-2.84
2019-01-19T09:07:51.268Z,-3.10
2019-01-19T09:10:22.899Z,-2.69
2019-01-19T09:12:54.701Z,-2.60
2019-01-19T09:15:26.249Z,-2.10
2019-01-19T09:17:57.737Z,-2.12
2019-01-19T09:20:31.348Z,-2.13
2019-01-19T09:23:08.183Z,-2.11
2019-01-19T09:25:39.672Z,-2.29
2019-01-19T09:28:11.138Z,-2.46
2019-01-19T09:30:42.638Z,-2.99
2019-01-19T09:33:14.022Z,-3.11
2019-01-19T09:35:45.489Z,-3.14
2019-01-19T09:38:17.442Z,-2.80
2019-01-19T09:40:48.869Z,-2.42
2019-01-19T09:43:23.242Z,-0.81
2019-01-19T09:45:54.701Z,0.40
2019-01-19T09:48:26.157Z,-0.42
2019-01-19T09:50:57.628Z,-0.22
2019-01-19T09:53:29.091Z,-0.93
2019-01-19T09:56:01.478Z,-0.68
2019-01-19T09:58:32.962Z,-1.25
2019-01-19T10:01:04.392Z,-1.29
2019-01-19T10:03:35.867Z,-1.68
2019-01-19T10:06:07.333Z,-2.13
2019-01-19T10:08:39.122Z,-1.59
2019-01-19T10:11:11.049Z,-1.54
2019-01-19T10:13:42.608Z,-1.71
2019-01-19T10:16:14.211Z,-1.01
2019-01-19T10:18:45.831Z,-0.99
2019-01-19T10:21:17.337Z,-0.75
2019-01-19T10:23:48.787Z,-0.23
2019-01-19T10:26:20.196Z,-0.59
2019-01-19T10:28:52.196Z,-0.37
2019-01-19T10:31:23.662Z,-0.13
2019-01-19T10:33:55.129Z,-0.77
2019-01-19T10:36:26.576Z,-0.69
2019-01-19T10:38:58.073Z,-1.21
2019-01-19T10:41:29.502Z,-0.81
2019-01-19T10:44:00.995Z,-0.69
2019-01-19T10:46:32.410Z,-1.07
2019-01-19T10:49:06.923Z,-0.97
2019-01-19T10:51:38.352Z,-0.99
2019-01-19T10:54:09.860Z,-1.05
2019-01-19T10:56:41.270Z,-0.89
2019-01-19T10:59:13.253Z,-0.74
2019-01-19T11:01:44.706Z,-1.14
2019-01-19T11:04:17.890Z,-0.94
2019-01-19T11:06:50.958Z,-0.58
2019-01-19T11:09:22.510Z,-0.57
2019-01-19T11:11:53.948Z,-0.58
2019-01-19T11:14:25.415Z,-0.32
2019-01-19T11:16:58.202Z,-0.23
2019-01-19T11:19:29.660Z,-0.41
2019-01-19T11:22:01.121Z,-0.82
2019-01-19T11:24:32.584Z,-0.99
2019-01-19T11:27:04.095Z,-0.59
2019-01-19T11:29:35.611Z,-0.23
2019-01-19T11:32:08.649Z,-0.07
2019-01-19T11:34:40.104Z,-0.33
2019-01-19T11:37:11.662Z,-0.41
2019-01-19T11:39:43.082Z,-0.33
2019-01-19T11:42:14.642Z,0.03
2019-01-19T11:44:46.098Z,-0.22
2019-01-19T11:47:17.628Z,0.03
2019-01-19T11:49:49.169Z,-0.24
2019-01-19T11:52:20.613Z,-0.17
2019-01-19T11:54:52.208Z,0.09
2019-01-19T11:57:23.725Z,0.21
2019-01-19T11:59:55.316Z,0.59
2019-01-19T12:02:26.818Z,0.49
2019-01-19T12:04:58.283Z,0.54
2019-01-19T12:07:31.006Z,0.49
2019-01-19T12:10:02.488Z,0.38
2019-01-19T12:12:33.993Z,0.63
2019-01-19T12:15:06.283Z,0.26
2019-01-19T12:17:37.755Z,0.57
2019-01-19T12:20:14.763Z,0.30
2019-01-19T12:22:46.192Z,0.27
2019-01-19T12:25:19.693Z,0.16
2019-01-19T12:27:51.111Z,-0.02
2019-01-19T12:30:25.786Z,0.22
2019-01-19T12:32:57.263Z,0.13
2019-01-19T12:35:28.855Z,0.04
2019-01-19T12:38:00.548Z,0.20
2019-01-19T12:40:32.267Z,0.53
2019-01-19T12:43:14.121Z,0.65
2019-01-19T12:46:10.512Z,0.52
2019-01-19T12:48:41.960Z,0.96
2019-01-19T12:51:14.829Z,0.99
2019-01-19T12:53:47.431Z,0.94
2019-01-19T12:56:18.884Z,0.76
2019-01-19T12:58:50.329Z,0.66
2019-01-19T13:01:21.762Z,0.82
2019-01-19T13:03:53.280Z,1.00
2019-01-19T13:07:00.278Z,0.51
2019-01-19T13:09:39.390Z,0.79
2019-01-19T13:12:51.388Z,0.61
2019-01-19T13:16:16.781Z,1.00
2019-01-19T13:18:59.069Z,0.83
2019-01-19T13:22:31.360Z,0.46
2019-01-19T13:25:47.170Z,0.81
2019-01-19T13:29:14.431Z,0.95
2019-01-19T13:32:24.488Z,1.11
2019-01-19T13:36:20.163Z,0.69
2019-01-19T13:39:45.623Z,0.36
2019-01-19T13:43:15.881Z,0.61
2019-01-19T13:46:00.170Z,1.13
2019-01-19T13:49:43.255Z,1.10
2019-01-19T13:52:55.672Z,0.98
2019-01-19T13:56:29.555Z,0.98
2019-01-19T13:59:49.184Z,1.03
2019-01-19T14:02:52.244Z,1.32
2019-01-19T14:06:02.727Z,1.53
2019-01-19T14:09:36.087Z,0.86
2019-01-19T14:13:25.103Z,1.04
2019-01-19T14:16:45.607Z,1.18
2019-01-19T14:19:55.823Z,0.88
2019-01-19T14:23:31.917Z,0.80
2019-01-19T14:26:53.906Z,0.87
2019-01-19T14:30:15.724Z,1.03
2019-01-19T14:33:20.311Z,1.03
2019-01-19T14:36:49.799Z,1.08
2019-01-19T14:40:33.202Z,1.23
2019-01-19T14:43:53.147Z,0.90
2019-01-19T14:47:02.013Z,0.77
2019-01-19T14:50:51.706Z,0.88
2019-01-19T14:54:00.288Z,0.41
2019-01-19T14:57:05.539Z,0.42
2019-01-19T15:00:39.254Z,0.49
2019-01-19T15:04:02.835Z,0.55
2019-01-19T15:07:22.904Z,0.59
2019-01-19T15:10:50.304Z,0.35
2019-01-19T15:14:00.299Z,0.28
2019-01-19T15:17:26.128Z,0.61
2019-01-19T15:20:47.593Z,0.55
2019-01-19T15:23:44.898Z,0.51
2019-01-19T15:27:23.779Z,0.48
2019-01-19T15:30:58.636Z,0.53
2019-01-19T15:34:30.500Z,0.47
2019-01-19T15:37:54.754Z,0.49
2019-01-19T15:41:15.162Z,0.36
2019-01-19T15:44:44.839Z,0.28
2019-01-19T15:47:40.261Z,0.44
2019-01-19T15:51:02.946Z,0.21
2019-01-19T15:53:43.023Z,0.19
2019-01-19T15:57:41.292Z,0.34
2019-01-19T16:01:07.461Z,-0.14
2019-01-19T16:04:16.742Z,-0.06
2019-01-19T16:07:49.179Z,-0.22
2019-01-19T16:11:32.897Z,-0.07
2019-01-19T16:15:23.142Z,-0.06
2019-01-19T16:18:29.922Z,-0.16
2019-01-19T16:22:06.382Z,-0.37
2019-01-19T16:25:34.292Z,-0.32
2019-01-19T16:29:00.715Z,-0.19
2019-01-19T16:32:19.099Z,-0.26
2019-01-19T16:35:49.844Z,-0.40
2019-01-19T16:39:25.642Z,-0.29
2019-01-19T16:42:33.175Z,-0.36
2019-01-19T16:45:32.663Z,-0.49
2019-01-19T16:48:19.045Z,-0.63
2019-01-19T16:51:46.035Z,-0.62
2019-01-19T16:54:40.515Z,-0.55
2019-01-19T16:58:22.343Z,-0.67
2019-01-19T17:01:48.689Z,-0.62
2019-01-19T17:05:24.686Z,-0.71
2019-01-19T17:08:32.884Z,-0.97
2019-01-19T17:11:57.650Z,-0.99
2019-01-19T17:15:36.423Z,-0.86
2019-01-19T17:19:04.513Z,-0.93
2019-01-19T17:22:38.572Z,-0.81
2019-01-19T17:26:14.868Z,-0.82
2019-01-19T17:29:19.139Z,-1.06
2019-01-19T17:32:37.192Z,-1.14
2019-01-19T17:35:56.346Z,-1.06
2019-01-19T17:39:13.887Z,-0.95
2019-01-19T17:43:06.347Z,-1.04
2019-01-19T17:46:31.731Z,-0.99
2019-01-19T17:49:51.350Z,-1.36
2019-01-19T17:53:41.095Z,-1.34
2019-01-19T17:57:04.118Z,-1.25
2019-01-19T18:00:27.025Z,-1.34
2019-01-19T18:03:33.379Z,-1.30
2019-01-19T18:06:45.233Z,-1.44
2019-01-19T18:10:15.004Z,-1.45
2019-01-19T18:13:34.419Z,-1.45
2019-01-19T18:17:25.772Z,-1.56
2019-01-19T18:20:45.126Z,-2.13
2019-01-19T18:24:40.589Z,-1.87
2019-01-19T18:28:09.386Z,-1.82
2019-01-19T18:31:31.764Z,-2.06
2019-01-19T18:34:29.130Z,-2.18
2019-01-19T18:37:30.527Z,-1.87
2019-01-19T18:40:48.940Z,-2.02
2019-01-19T18:43:52.112Z,-1.97
2019-01-19T18:47:28.709Z,-1.86
2019-01-19T18:51:26.913Z,-1.70
2019-01-19T18:54:34.232Z,-1.82
2019-01-19T18:58:25.215Z,-1.68
2019-01-19T19:01:46.127Z,-1.98
2019-01-19T19:05:22.209Z,-1.99
2019-01-19T19:08:35.789Z,-1.98
2019-01-19T19:11:46.034Z,-1.94
2019-01-19T19:14:48.013Z,-1.77
2019-01-19T19:18:22.775Z,-1.85
2019-01-19T19:21:43.562Z,-2.07
2019-01-19T19:25:32.802Z,-2.06
2019-01-19T19:28:49.473Z,-2.02
2019-01-19T19:32:20.022Z,-2.22
2019-01-19T19:35:23.254Z,-2.21
2019-01-19T19:38:45.456Z,-2.20
2019-01-19T19:42:20.366Z,-2.28
2019-01-19T19:45:36.193Z,-2.14
2019-01-19T19:48:43.597Z,-2.17
2019-01-19T19:52:03.820Z,-2.21
2019-01-19T19:54:36.449Z,-2.46
2019-01-19T19:57:07.983Z,-2.58
2019-01-19T19:59:39.584Z,-2.42
2019-01-19T20:02:11.304Z,-2.59
2019-01-19T20:04:42.916Z,-2.69
2019-01-19T20:07:14.935Z,-2.51
2019-01-19T20:09:46.658Z,-2.60
2019-01-19T20:12:18.195Z,-2.72
2019-01-19T20:14:49.707Z,-2.71
2019-01-19T20:17:21.372Z,-2.66
2019-01-19T20:19:53.057Z,-2.73
2019-01-19T20:22:24.563Z,-2.71
2019-01-19T20:24:56.140Z,-2.72
2019-01-19T20:27:27.584Z,-3.00
2019-01-19T20:29:59.085Z,-3.00
2019-01-19T20:32:30.645Z,-2.91
2019-01-19T20:35:02.191Z,-3.07
2019-01-19T20:37:33.758Z,-3.14
2019-01-19T20:40:06.274Z,-3.24
2019-01-19T20:42:37.742Z,-3.22
2019-01-19T20:45:11.347Z,-3.25
2019-01-19T20:47:42.877Z,-3.24
2019-01-19T20:50:14.617Z,-3.22
2019-01-19T20:52:46.169Z,-3.22
2019-01-19T20:55:17.646Z,-3.70
2019-01-19T20:57:49.025Z,-3.74
2019-01-19T21:00:20.660Z,-3.90
2019-01-19T21:02:53.446Z,-3.61
2019-01-19T21:05:24.915Z,-3.75
2019-01-19T21:07:56.505Z,-3.77
2019-01-19T21:10:31.851Z,-3.94
2019-01-19T21:13:01.272Z,-4.14
2019-01-19T21:15:33.839Z,-3.98
2019-01-19T21:18:05.372Z,-3.93
2019-01-19T21:20:37.911Z,-4.17
2019-01-19T21:23:09.373Z,-3.97
2019-01-19T21:25:40.914Z,-4.09
2019-01-19T21:28:12.342Z,-4.23
2019-01-19T21:30:43.928Z,-4.13
2019-01-19T21:33:15.371Z,-4.37
2019-01-19T21:35:46.841Z,-4.18
2019-01-19T21:38:20.720Z,-4.15
2019-01-19T21:40:52.184Z,-4.25
2019-01-19T21:43:23.647Z,-4.44
2019-01-19T21:45:55.117Z,-4.26
2019-01-19T21:48:26.575Z,-4.25
2019-01-19T21:50:58.050Z,-4.43
2019-01-19T21:53:31.012Z,-4.48
2019-01-19T21:56:02.461Z,-4.50
2019-01-19T21:58:33.927Z,-4.65
2019-01-19T22:01:05.394Z,-4.85
2019-01-19T22:03:42.913Z,-5.07
2019-01-19T22:06:14.580Z,-5.07
2019-01-19T22:08:46.022Z,-4.90
2019-01-19T22:11:17.503Z,-4.98
2019-01-19T22:13:50.554Z,-5.14
2019-01-19T22:16:22.095Z,-5.08
2019-01-19T22:18:53.571Z,-5.27
2019-01-19T22:21:26.334Z,-5.30
2019-01-19T22:23:57.752Z,-4.98
2019-01-19T22:26:29.586Z,-4.77
2019-01-19T22:29:01.025Z,-4.84
2019-01-19T22:31:32.516Z,-4.92
2019-01-19T22:34:03.934Z,-4.93
2019-01-19T22:36:35.394Z,-4.92
2019-01-19T22:39:08.951Z,-5.05
2019-01-19T22:41:40.415Z,-5.07
2019-01-19T22:44:11.848Z,-5.20
2019-01-19T22:46:43.290Z,-5.32
2019-01-19T22:49:14.761Z,-5.10
2019-01-19T22:51:47.057Z,-5.18
2019-01-19T22:54:18.530Z,-5.30
2019-01-19T22:56:49.980Z,-5.32
2019-01-19T22:59:21.399Z,-5.27
2019-01-19T23:02:10.784Z,-5.34
2019-01-19T23:04:42.298Z,-5.54
2019-01-19T23:07:13.828Z,-5.61
2019-01-19T23:09:45.277Z,-5.54
2019-01-19T23:12:16.774Z,-5.54
2019-01-19T23:14:48.574Z,-5.27
2019-01-19T23:17:20.115Z,-5.33
2019-01-19T23:19:51.566Z,-5.48
2019-01-19T23:22:24.300Z,-5.67
2019-01-19T23:24:56.021Z,-5.59
2019-01-19T23:27:27.473Z,-5.53
2019-01-19T23:29:58.907Z,-5.48
2019-01-19T23:32:30.395Z,-5.44
2019-01-19T23:35:01.838Z,-5.53
2019-01-19T23:37:33.284Z,-5.91
2019-01-19T23:40:05.325Z,-5.67
2019-01-19T23:42:36.858Z,-5.67
2019-01-19T23:45:08.406Z,-5.60
2019-01-19T23:47:39.962Z,-5.49
2019-01-19T23:50:12.589Z,-5.56
2019-01-19T23:52:45.360Z,-5.48
2019-01-19T23:55:19.058Z,-5.57
2019-01-19T23:57:51.031Z,-5.67
